Time;durP1;ratioP1;P1;durP2;ratioP2;P2;SDS_P1;SDS_P2;PMS_P1;PMS_P2;Temp;Humidity;BMP_temperature;BMP_pressure;BME280_temperature;BME280_humidity;BME280_pressure;Samples;Min_cycle;Max_cycle;Signal;HPM_P1;HPM_P2
2021/12/14 00:00:31;;;;;;;31.38;21.77;;;8.70;99.90;;;8.94;80.18;102173.00;4915259;23;20248;-69
2021/12/14 00:03:01;;;;;;;29.92;20.13;;;8.80;99.90;;;8.88;80.39;102178.19;4911992;29;20266;-69
2021/12/14 00:05:33;;;;;;;28.48;21.92;;;8.80;99.90;;;8.88;80.32;102179.03;4914669;29;20289;-69
2021/12/14 00:08:04;;;;;;;25.67;20.77;;;8.80;99.90;;;8.89;79.74;102172.63;4918349;29;20192;-69
2021/12/14 00:11:10;;;;;;;27.75;20.48;;;8.80;99.90;;;8.82;80.03;102184.22;4935658;29;20228;-70
2021/12/14 00:13:54;;;;;;;30.92;20.00;;;8.80;99.90;;;8.75;80.91;102177.78;4939573;29;20176;-69
2021/12/14 00:16:25;;;;;;;28.60;21.60;;;8.70;99.90;;;8.81;80.54;102188.75;4938241;29;20197;-69
2021/12/14 00:18:53;;;;;;;26.48;20.48;;;8.80;99.90;;;8.92;79.84;102180.41;4939318;29;20213;-69
2021/12/14 00:21:29;;;;;;;33.42;20.83;;;8.80;99.90;;;8.81;80.08;102172.56;4939461;29;20188;-68
2021/12/14 00:24:11;;;;;;;28.42;20.65;;;8.80;99.90;;;8.93;79.78;102182.09;4935013;29;20673;-69
2021/12/14 00:26:47;;;;;;;28.85;20.45;;;8.80;99.90;;;8.90;79.84;102171.63;4934598;29;20232;-66
2021/12/14 00:29:20;;;;;;;29.40;20.15;;;8.80;99.90;;;8.93;79.33;102167.75;4949157;29;20225;-70
2021/12/14 00:31:52;;;;;;;23.33;18.73;;;8.80;99.90;;;8.89;79.21;102169.94;4949251;29;20235;-68
2021/12/14 00:34:33;;;;;;;25.88;18.92;;;8.80;99.90;;;8.77;79.64;102171.19;4935166;29;20173;-69
2021/12/14 00:37:04;;;;;;;27.83;19.85;;;8.80;99.90;;;8.68;80.35;102177.56;4934733;29;20175;-68
2021/12/14 00:39:33;;;;;;;24.63;18.42;;;8.70;99.90;;;8.75;79.95;102167.84;4934435;29;20215;-69
2021/12/14 00:42:02;;;;;;;25.50;18.37;;;8.70;99.90;;;8.75;79.69;102172.38;4933175;29;20682;-68
2021/12/14 00:44:30;;;;;;;24.77;19.00;;;8.70;99.90;;;8.79;79.45;102180.00;4934299;29;20499;-68
2021/12/14 00:47:00;;;;;;;23.98;17.45;;;8.70;99.90;;;8.83;78.96;102186.78;4934029;29;20382;-69
2021/12/14 00:49:29;;;;;;;24.37;19.23;;;8.80;99.90;;;8.92;78.70;102174.16;4934583;29;20217;-69
2021/12/14 00:51:58;;;;;;;24.17;18.40;;;8.80;99.90;;;8.83;78.82;102170.56;4932989;29;20495;-70
2021/12/14 00:54:26;;;;;;;25.95;19.67;;;8.80;99.90;;;8.75;78.82;102173.22;4934286;29;20521;-68
2021/12/14 00:56:55;;;;;;;22.95;17.08;;;8.70;99.90;;;8.91;78.31;102164.34;4934115;29;20239;-70
2021/12/14 00:59:24;;;;;;;27.27;16.07;;;8.70;99.90;;;8.90;77.99;102168.09;4948664;28;20216;-69
2021/12/14 01:01:56;;;;;;;25.42;19.70;;;8.70;99.90;;;8.95;77.81;102172.00;4949035;29;20429;-69
2021/12/14 01:04:31;;;;;;;27.77;19.85;;;8.80;99.90;;;8.87;77.99;102169.25;4933971;29;20252;-68
2021/12/14 01:07:02;;;;;;;24.70;18.88;;;8.80;99.90;;;8.89;77.88;102171.78;4948792;29;20283;-69
2021/12/14 01:09:36;;;;;;;24.38;18.38;;;8.80;99.90;;;8.89;77.75;102178.03;4932809;29;20231;-69
2021/12/14 01:12:13;;;;;;;23.02;18.77;;;8.80;99.90;;;8.87;77.78;102174.63;4948603;29;20252;-69
2021/12/14 01:14:50;;;;;;;21.65;17.98;;;8.80;99.90;;;8.87;77.54;102174.63;4932979;29;20291;-68
2021/12/14 01:17:40;;;;;;;21.45;17.95;;;8.80;99.90;;;8.86;77.24;102170.25;4949407;29;20220;-67
2021/12/14 01:20:15;;;;;;;24.55;19.27;;;8.80;99.90;;;8.77;78.07;102176.59;4934688;29;20291;-69
2021/12/14 01:22:46;;;;;;;22.23;18.08;;;8.70;99.90;;;8.69;78.15;102173.84;4934528;29;20272;-70
2021/12/14 01:25:20;;;;;;;26.25;18.90;;;8.70;99.90;;;8.68;78.65;102169.47;4952201;29;20764;-70
2021/12/14 01:27:56;;;;;;;25.77;18.65;;;8.70;99.90;;;8.66;78.70;102163.41;4937647;29;20268;-68
2021/12/14 01:30:35;;;;;;;22.90;18.20;;;8.60;99.90;;;8.86;77.72;102164.84;4952197;29;20349;-69
2021/12/14 01:33:13;;;;;;;26.02;21.05;;;8.70;99.90;;;8.70;78.08;102167.47;4936289;29;20204;-69
2021/12/14 01:35:48;;;;;;;22.95;18.60;;;8.70;99.90;;;8.73;78.24;102167.13;4936182;29;20249;-70
2021/12/14 01:38:32;;;;;;;23.70;17.58;;;8.70;99.90;;;8.81;77.29;102161.78;4937670;29;20184;-69
2021/12/14 01:41:06;;;;;;;21.70;17.70;;;8.70;99.90;;;8.84;77.83;102166.03;4937418;29;20178;-69
2021/12/14 01:43:49;;;;;;;23.08;17.30;;;8.70;99.90;;;8.81;76.54;102164.47;4937741;29;20248;-66
2021/12/14 01:46:26;;;;;;;19.17;16.50;;;8.70;99.90;;;8.86;76.76;102161.31;4938304;29;20224;-68
2021/12/14 01:49:07;;;;;;;19.70;15.52;;;8.70;99.90;;;8.71;77.30;102166.47;4938678;29;20653;-69
2021/12/14 01:51:50;;;;;;;23.73;18.60;;;8.70;99.90;;;8.70;77.32;102162.06;4939527;29;20264;-69
2021/12/14 01:54:31;;;;;;;20.20;15.40;;;8.70;99.90;;;8.89;76.12;102152.88;4938508;29;20280;-67
2021/12/14 01:57:07;;;;;;;18.77;15.38;;;8.70;99.90;;;8.73;76.78;102159.03;4937643;29;20205;-69
2021/12/14 01:59:40;;;;;;;18.83;15.85;;;8.70;99.90;;;8.88;76.41;102152.03;4935772;29;20263;-68
2021/12/14 02:02:21;;;;;;;24.00;15.80;;;8.70;99.90;;;8.75;76.47;102146.25;4951952;29;20201;-67
2021/12/14 02:04:54;;;;;;;17.45;14.93;;;8.70;99.90;;;8.79;76.12;102153.00;4937115;29;20188;-67
2021/12/14 02:07:28;;;;;;;19.75;15.40;;;8.70;99.90;;;8.81;76.06;102159.06;4937484;29;20225;-69
2021/12/14 02:10:05;;;;;;;18.80;15.85;;;8.70;99.90;;;8.80;76.14;102149.31;4937820;29;20225;-69
2021/12/14 02:12:36;;;;;;;20.73;14.63;;;8.70;99.90;;;8.67;76.28;102144.31;4954838;29;20201;-67
2021/12/14 02:15:12;;;;;;;22.15;15.48;;;8.60;99.90;;;8.75;76.37;102140.00;4938587;29;20196;-68
2021/12/14 02:17:44;;;;;;;16.25;13.68;;;8.70;99.90;;;8.76;76.17;102130.91;4954813;29;20199;-69
2021/12/14 02:20:19;;;;;;;17.23;12.65;;;8.70;99.90;;;8.74;75.57;102139.13;4951716;29;20217;-68
2021/12/14 02:22:49;;;;;;;18.35;13.43;;;8.70;99.90;;;8.76;75.99;102126.34;4951816;29;20591;-69
2021/12/14 02:25:19;;;;;;;15.05;11.65;;;8.60;99.90;;;8.76;75.66;102120.94;4951066;29;20570;-69
2021/12/14 02:27:51;;;;;;;16.80;13.65;;;8.70;99.90;;;8.75;75.66;102124.66;4936899;29;20655;-69
2021/12/14 02:30:30;;;;;;;15.60;13.32;;;8.70;99.90;;;8.70;75.89;102121.59;4935593;29;20213;-69
2021/12/14 02:33:20;;;;;;;25.40;12.35;;;8.60;99.90;;;8.72;75.46;102124.94;4952097;29;20200;-70
2021/12/14 02:35:50;;;;;;;15.98;12.27;;;8.60;99.90;;;8.76;75.36;102126.34;4934662;29;20235;-69
2021/12/14 02:38:22;;;;;;;15.38;12.75;;;8.70;99.90;;;8.75;75.41;102130.03;4950925;29;20200;-68
2021/12/14 02:40:57;;;;;;;15.90;12.13;;;8.70;99.90;;;8.66;75.12;102121.06;4936645;29;20566;-69
2021/12/14 02:43:38;;;;;;;14.23;11.75;;;8.60;99.90;;;8.56;75.94;102124.88;4951301;29;20201;-68
2021/12/14 02:46:16;;;;;;;17.67;12.75;;;8.50;99.90;;;8.60;75.74;102118.16;4950981;29;20219;-68
2021/12/14 02:48:48;;;;;;;19.27;14.68;;;8.50;99.90;;;8.58;75.68;102120.16;4950581;29;20652;-68
2021/12/14 02:51:25;;;;;;;15.00;11.95;;;8.50;99.90;;;8.60;75.58;102126.25;4934995;29;20200;-67
2021/12/14 02:54:01;;;;;;;13.57;12.13;;;8.50;99.90;;;8.60;75.35;102118.16;4951182;29;20631;-67
2021/12/14 02:56:33;;;;;;;15.10;10.95;;;8.50;99.90;;;8.55;75.73;102118.63;4937026;29;20259;-69
2021/12/14 02:59:10;;;;;;;18.10;12.23;;;8.50;99.90;;;8.70;75.07;102111.63;4936902;29;20212;-68
2021/12/14 03:01:40;;;;;;;19.83;14.43;;;8.50;99.90;;;8.62;75.74;102113.41;4936505;29;20199;-69
2021/12/14 03:04:14;;;;;;;12.82;11.50;;;8.50;99.90;;;8.64;75.08;102111.41;4951209;29;20432;-68
2021/12/14 03:06:49;;;;;;;18.20;11.52;;;8.50;99.90;;;8.72;74.72;102106.06;4934868;29;20264;-68
2021/12/14 03:09:38;;;;;;;16.85;10.82;;;8.60;99.90;;;8.67;74.83;102105.69;4950962;29;20316;-69
2021/12/14 03:12:16;;;;;;;18.92;10.93;;;8.60;99.90;;;8.71;74.38;102101.69;4950899;29;20207;-69
2021/12/14 03:14:53;;;;;;;14.70;11.43;;;8.60;99.90;;;8.63;74.83;102109.72;4936417;29;20199;-68
2021/12/14 03:17:22;;;;;;;18.23;11.10;;;8.60;99.90;;;8.62;74.88;102097.22;4950852;29;20196;-67
2021/12/14 03:19:57;;;;;;;14.23;10.98;;;8.60;99.90;;;8.56;74.97;102106.00;4936029;29;20208;-68
2021/12/14 03:22:36;;;;;;;17.65;12.48;;;8.50;99.90;;;8.63;74.69;102098.94;4950885;29;20211;-68
2021/12/14 03:25:09;;;;;;;18.67;12.63;;;8.50;99.90;;;8.51;74.94;102094.81;4936075;29;20271;-68
2021/12/14 03:27:40;;;;;;;17.50;12.85;;;8.40;99.90;;;8.53;74.88;102093.66;4936390;29;20272;-69
2021/12/14 03:30:24;;;;;;;17.45;12.63;;;8.40;99.90;;;8.53;74.74;102092.78;4936752;29;20331;-69
2021/12/14 03:32:58;;;;;;;15.43;12.13;;;8.40;99.90;;;8.51;74.91;102095.69;4935633;29;20207;-68
2021/12/14 03:35:41;;;;;;;15.90;11.50;;;8.40;99.90;;;8.54;74.64;102086.41;4951943;29;20193;-67
2021/12/14 03:38:16;;;;;;;19.42;12.48;;;8.50;99.90;;;8.52;74.62;102086.53;4935988;29;20196;-67
2021/12/14 03:40:57;;;;;;;15.40;11.05;;;8.40;99.90;;;8.55;74.60;102088.09;4934913;29;20187;-69
2021/12/14 03:43:27;;;;;;;16.75;12.27;;;8.40;99.90;;;8.42;74.95;102080.44;4935388;29;20235;-68
2021/12/14 03:45:58;;;;;;;15.85;12.20;;;8.40;99.90;;;8.56;74.45;102076.31;4934880;29;20176;-69
2021/12/14 03:48:31;;;;;;;16.40;12.48;;;8.40;99.90;;;8.54;74.39;102081.00;4949972;29;20276;-68
2021/12/14 03:51:01;;;;;;;16.20;11.85;;;8.40;99.90;;;8.52;74.35;102081.16;4950445;29;20197;-68
2021/12/14 03:53:31;;;;;;;18.27;11.93;;;8.40;99.90;;;8.48;74.28;102078.94;4933960;29;20189;-68
2021/12/14 03:56:06;;;;;;;17.83;13.23;;;8.40;99.90;;;8.41;74.32;102067.97;4949631;29;20196;-69
2021/12/14 03:58:38;;;;;;;15.52;12.00;;;8.40;99.90;;;8.43;74.67;102068.63;4949489;29;20739;-69
2021/12/14 04:01:13;;;;;;;17.70;12.55;;;8.40;99.90;;;8.54;73.84;102059.41;4949929;29;20388;-68
2021/12/14 04:03:54;;;;;;;16.58;12.02;;;8.40;99.90;;;8.42;74.24;102052.63;4933661;29;20295;-69
2021/12/14 04:06:28;;;;;;;15.60;11.73;;;8.40;99.90;;;8.44;74.37;102046.03;4949610;28;20582;-69
2021/12/14 04:08:57;;;;;;;14.57;10.90;;;8.30;99.90;;;8.42;74.35;102052.63;4949648;29;20220;-69
2021/12/14 04:11:28;;;;;;;18.08;13.68;;;8.30;99.90;;;8.41;74.04;102045.53;4949654;29;20207;-70
2021/12/14 04:13:57;;;;;;;17.95;12.38;;;8.30;99.90;;;8.40;74.38;102043.84;4949771;29;20604;-69
2021/12/14 04:16:40;;;;;;;20.95;15.75;;;8.30;99.90;;;8.37;73.99;102027.97;4933558;29;20180;-69
2021/12/14 04:19:20;;;;;;;14.75;12.38;;;8.30;99.90;;;8.40;74.23;102031.19;4934936;29;20213;-70
2021/12/14 04:21:53;;;;;;;15.70;11.57;;;8.30;99.90;;;8.28;74.18;102022.47;4949785;29;20211;-69
2021/12/14 04:24:27;;;;;;;15.68;11.52;;;8.30;99.90;;;8.38;74.32;102016.16;4949999;29;20566;-68
2021/12/14 04:27:03;;;;;;;16.70;10.70;;;8.30;99.90;;;8.38;74.07;102016.16;4949251;29;20220;-70
2021/12/14 04:29:33;;;;;;;17.80;12.00;;;8.30;99.90;;;8.41;74.07;102007.75;4949422;29;20216;-69
2021/12/14 04:32:09;;;;;;;16.50;12.75;;;8.30;99.90;;;8.44;74.38;102018.22;4949512;29;20185;-69
2021/12/14 04:34:39;;;;;;;16.52;12.20;;;8.30;99.90;;;8.42;74.13;102012.16;4949137;29;20288;-70
2021/12/14 04:37:09;;;;;;;17.17;12.73;;;8.30;99.90;;;8.31;74.65;102017.81;4949288;29;20263;-70
2021/12/14 04:39:43;;;;;;;20.15;11.57;;;8.30;99.90;;;8.51;73.86;102000.41;4933491;29;20217;-69
2021/12/14 04:53:49;;;;;;;16.63;12.13;;;8.40;99.90;;;8.46;73.41;102019.78;4949454;29;20201;-68
2021/12/14 04:56:27;;;;;;;21.33;13.45;;;8.40;99.90;;;8.39;73.56;102020.56;4932929;29;20201;-68
2021/12/14 04:59:08;;;;;;;17.75;11.82;;;8.30;99.90;;;8.43;73.60;102017.38;4936590;29;20224;-69
2021/12/14 05:01:42;;;;;;;20.10;11.75;;;8.30;99.90;;;8.31;74.10;102010.59;4953285;29;20212;-68
2021/12/14 05:04:19;;;;;;;18.20;11.25;;;8.30;99.90;;;8.49;73.36;102021.28;4936988;29;20284;-70
2021/12/14 05:06:51;;;;;;;17.77;12.20;;;8.30;99.90;;;8.42;73.36;102013.00;4937598;29;20725;-68
2021/12/14 05:09:27;;;;;;;14.90;11.15;;;8.30;99.90;;;8.35;73.77;102027.28;4940438;29;20220;-69
2021/12/14 05:12:10;;;;;;;16.90;11.30;;;8.30;99.90;;;8.38;73.69;102030.50;4940460;29;20173;-68
2021/12/14 05:15:06;;;;;;;18.02;13.07;;;8.30;99.90;;;8.31;73.91;102029.47;4938260;29;20200;-68
2021/12/14 05:17:41;;;;;;;13.10;10.82;;;8.30;99.90;;;8.36;73.61;102031.69;4958897;29;20221;-69
2021/12/14 05:20:14;;;;;;;18.15;12.45;;;8.30;99.90;;;8.41;73.68;102040.13;4937492;29;20701;-69
2021/12/14 05:22:47;;;;;;;17.52;13.13;;;8.30;99.90;;;8.27;73.69;102042.41;4953652;29;20196;-68
2021/12/14 05:25:26;;;;;;;22.00;13.60;;;8.20;99.90;;;8.14;74.72;102054.59;4936778;29;20578;-69
2021/12/14 05:28:09;;;;;;;18.85;12.40;;;8.20;99.90;;;8.26;74.04;102054.19;4952614;29;20662;-68
2021/12/14 05:30:45;;;;;;;18.88;13.52;;;8.20;99.90;;;8.35;73.68;102052.41;4952679;29;20222;-69
2021/12/14 05:33:37;;;;;;;17.50;13.23;;;8.20;99.90;;;8.30;73.91;102054.72;4952751;29;20279;-68
2021/12/14 05:36:24;;;;;;;18.52;13.05;;;8.20;99.90;;;8.20;74.07;102049.41;4952464;29;20223;-68
2021/12/14 05:39:01;;;;;;;20.05;13.75;;;8.20;99.90;;;8.34;73.85;102045.31;4952583;29;20212;-69
2021/12/14 05:44:47;;;;;;;19.80;13.15;;;8.20;99.90;;;8.22;73.89;102051.97;4937066;29;20263;-69
2021/12/14 05:47:20;;;;;;;17.90;12.60;;;8.10;99.90;;;8.19;74.11;102047.72;4952426;29;20239;-68
2021/12/14 05:49:58;;;;;;;18.17;12.60;;;8.10;99.90;;;8.12;74.08;102045.81;4952230;29;20216;-70
2021/12/14 05:52:29;;;;;;;19.42;12.10;;;8.10;99.90;;;8.15;74.31;102051.75;4952578;29;20441;-69
2021/12/14 05:55:09;;;;;;;18.67;12.48;;;8.00;99.90;;;8.14;74.50;102041.94;4951958;29;20207;-69
2021/12/14 05:57:39;;;;;;;17.83;12.20;;;8.10;99.90;;;8.19;74.21;102042.31;4952271;29;20251;-69
2021/12/14 06:00:13;;;;;;;18.70;12.85;;;8.10;99.90;;;8.18;73.70;102043.31;4941829;23;20237;-71
2021/12/14 06:02:48;;;;;;;17.75;11.80;;;8.10;99.90;;;8.13;74.27;102032.16;4890205;29;20186;-71
2021/12/14 06:05:22;;;;;;;15.10;11.32;;;8.10;99.90;;;8.17;74.38;102038.97;4918361;29;20198;-72
2021/12/14 06:07:52;;;;;;;21.38;11.70;;;8.10;99.90;;;8.13;73.73;102036.75;4917773;29;20284;-72
2021/12/14 06:10:25;;;;;;;21.33;13.48;;;8.10;99.90;;;8.13;74.12;102042.94;4929256;29;20284;-71
2021/12/14 06:12:56;;;;;;;19.10;10.82;;;8.10;99.90;;;8.04;74.30;102043.91;4937825;29;20280;-71
2021/12/14 06:15:29;;;;;;;18.00;11.95;;;8.00;99.90;;;8.09;74.32;102043.44;4953267;29;20280;-71
2021/12/14 06:18:24;;;;;;;16.98;12.30;;;8.00;99.90;;;8.04;74.63;102038.50;4954769;29;20200;-71
2021/12/14 06:21:05;;;;;;;16.52;11.02;;;8.00;99.90;;;8.08;74.26;102034.53;4954669;29;20648;-71
2021/12/14 06:23:36;;;;;;;14.77;11.68;;;8.00;99.90;;;8.13;74.03;102036.75;4956241;29;20248;-71
2021/12/14 06:26:15;;;;;;;17.73;11.90;;;8.00;99.90;;;8.09;73.49;102029.94;4961004;29;20200;-72
2021/12/14 06:28:45;;;;;;;16.98;12.18;;;8.00;99.90;;;8.01;73.84;102019.13;4962299;29;20220;-71
2021/12/14 06:31:14;;;;;;;18.83;11.35;;;8.00;99.90;;;8.06;74.07;102020.34;4946318;29;20216;-72
2021/12/14 06:33:43;;;;;;;17.65;12.40;;;8.00;99.90;;;7.94;74.55;102020.78;4946082;29;20225;-72
2021/12/14 06:37:06;;;;;;;18.15;11.65;;;7.90;99.90;;;8.19;73.82;102025.28;4945716;29;20204;-71
2021/12/14 06:40:11;;;;;;;15.77;10.90;;;8.00;99.90;;;8.13;73.51;102010.59;4959974;28;20225;-71
2021/12/14 06:42:44;;;;;;;15.50;12.43;;;8.10;99.90;;;8.20;73.35;102011.66;4935627;29;20216;-71
2021/12/14 06:45:19;;;;;;;16.58;11.30;;;8.10;99.90;;;8.14;73.24;102022.22;4951538;29;20197;-72
2021/12/14 06:47:52;;;;;;;18.52;12.18;;;8.10;99.90;;;8.12;73.48;102024.25;4952520;29;20217;-72
2021/12/14 06:50:28;;;;;;;20.65;11.20;;;8.00;99.90;;;8.05;74.24;102013.25;4951258;28;20208;-71
2021/12/14 06:53:06;;;;;;;19.23;12.75;;;8.00;99.90;;;8.12;73.86;102010.78;4953548;29;20212;-72
2021/12/14 06:55:58;;;;;;;14.65;11.20;;;8.00;99.90;;;8.19;73.32;102025.28;4939079;29;20208;-71
2021/12/14 06:58:55;;;;;;;18.33;13.25;;;8.10;99.90;;;8.08;73.63;102022.88;4939612;29;20259;-72
2021/12/14 07:01:44;;;;;;;15.85;11.45;;;8.00;99.90;;;8.16;73.46;102009.44;4951447;28;20197;-71
2021/12/14 07:04:18;;;;;;;15.48;11.85;;;8.10;99.90;;;8.08;73.41;102017.50;4951713;29;20195;-72
2021/12/14 07:06:55;;;;;;;19.58;12.25;;;8.00;99.90;;;8.16;72.96;102009.44;4952237;29;20226;-72
2021/12/14 07:09:27;;;;;;;17.30;13.77;;;8.00;99.90;;;8.15;73.29;102014.00;4937039;29;20228;-72
2021/12/14 07:12:01;;;;;;;19.13;11.45;;;8.10;99.90;;;8.16;73.14;102021.06;4936322;29;20192;-72
2021/12/14 07:14:42;;;;;;;14.02;11.02;;;8.10;99.90;;;8.16;73.08;102026.47;4937455;29;20193;-71
2021/12/14 07:17:15;;;;;;;14.85;11.95;;;8.10;99.90;;;8.10;73.40;102027.09;4936516;29;20193;-71
2021/12/14 07:19:48;;;;;;;16.25;11.68;;;8.10;99.90;;;8.11;72.91;102034.19;4936635;29;20296;-71
2021/12/14 07:22:40;;;;;;;22.00;11.82;;;8.10;99.90;;;8.11;72.83;102042.28;4935075;29;20224;-71
2021/12/14 07:25:14;;;;;;;14.50;10.77;;;8.00;99.90;;;8.03;73.11;102044.94;4935791;29;20207;-72
2021/12/14 07:27:44;;;;;;;13.95;9.70;;;8.00;99.90;;;8.13;72.83;102053.72;4935819;29;20627;-70
2021/12/14 07:30:20;;;;;;;17.17;10.30;;;8.00;99.90;;;8.01;73.73;102055.00;4935180;29;20212;-71
2021/12/14 07:32:55;;;;;;;17.65;12.10;;;8.00;99.90;;;8.18;73.35;102046.00;4936357;29;20202;-72
2021/12/14 07:35:46;;;;;;;16.35;12.30;;;8.00;99.90;;;8.17;72.93;102044.34;4935508;29;20252;-71
2021/12/14 07:38:34;;;;;;;17.48;11.25;;;8.00;99.90;;;8.08;73.53;102061.47;4935993;29;20342;-72
2021/12/14 07:41:23;;;;;;;17.55;11.27;;;8.00;99.90;;;8.15;72.95;102054.44;4936294;29;20212;-71
2021/12/14 07:43:58;;;;;;;15.40;9.85;;;8.00;99.90;;;8.09;73.12;102052.38;4935734;29;20203;-74
2021/12/14 07:46:39;;;;;;;17.00;11.85;;;8.00;99.90;;;8.05;73.34;102059.06;4950453;28;20449;-72
2021/12/14 07:49:19;;;;;;;13.15;10.05;;;8.00;99.90;;;8.19;73.01;102058.50;4926990;29;20706;-73
2021/12/14 07:51:53;;;;;;;13.75;11.32;;;8.00;99.90;;;8.13;73.19;102059.13;4920910;29;20273;-73
2021/12/14 07:54:29;;;;;;;14.73;10.90;;;8.00;99.90;;;8.15;73.20;102057.13;4924122;29;20224;-71
2021/12/14 07:57:04;;;;;;;16.23;11.20;;;8.00;99.90;;;8.05;73.14;102066.31;4918972;29;20295;-71
2021/12/14 07:59:38;;;;;;;20.17;11.57;;;8.00;99.90;;;8.10;73.54;102064.00;4916111;29;20645;-72
2021/12/14 08:02:14;;;;;;;15.10;11.30;;;8.00;99.90;;;8.20;73.02;102065.59;4925821;29;20228;-71
2021/12/14 08:04:47;;;;;;;15.48;10.75;;;8.10;99.90;;;8.13;73.29;102069.91;4927367;29;20228;-73
2021/12/14 08:07:30;;;;;;;18.63;13.48;;;8.10;99.90;;;8.16;73.66;102069.63;4921069;29;20185;-71
2021/12/14 08:10:13;;;;;;;14.45;10.52;;;8.10;99.90;;;8.20;73.40;102060.19;4926572;29;20239;-71
2021/12/14 08:12:47;;;;;;;14.27;11.90;;;8.10;99.90;;;8.09;73.92;102062.31;4915254;29;20240;-71
2021/12/14 08:15:26;;;;;;;14.07;10.65;;;8.00;99.90;;;8.16;73.73;102053.44;4919884;29;20208;-71
2021/12/14 08:18:06;;;;;;;16.50;11.30;;;8.00;99.90;;;8.26;73.47;102059.56;4925185;29;20197;-73
2021/12/14 08:20:46;;;;;;;17.48;12.73;;;8.10;99.90;;;8.28;73.31;102068.34;4926864;29;20210;-71
2021/12/14 08:23:22;;;;;;;13.65;11.52;;;8.20;99.90;;;8.22;73.17;102074.38;4923631;29;20215;-72
2021/12/14 08:25:57;;;;;;;14.63;11.70;;;8.10;99.90;;;8.25;73.22;102081.31;4922089;29;20279;-71
2021/12/14 08:28:26;;;;;;;18.52;12.32;;;8.10;99.90;;;8.24;73.38;102093.09;4924639;29;20312;-71
2021/12/14 08:31:11;;;;;;;15.45;12.68;;;8.10;99.90;;;8.31;73.16;102083.41;4928301;29;20213;-72
2021/12/14 08:33:40;;;;;;;14.80;12.57;;;8.20;99.90;;;8.20;73.38;102089.88;4936976;29;20198;-72
2021/12/14 08:36:13;;;;;;;16.48;11.90;;;8.10;99.90;;;8.14;73.67;102087.78;4916896;29;20220;-72
2021/12/14 08:38:42;;;;;;;18.42;12.90;;;8.10;99.90;;;8.22;73.48;102087.88;4919199;29;20200;-72
2021/12/14 08:41:19;;;;;;;15.23;11.88;;;8.10;99.90;;;8.28;73.41;102089.91;4930649;29;20729;-71
2021/12/14 08:43:52;;;;;;;16.17;12.57;;;8.10;99.90;;;8.12;73.70;102089.81;4928583;29;20181;-72
2021/12/14 08:46:26;;;;;;;18.42;13.10;;;8.00;99.90;;;8.16;73.72;102088.50;4921981;29;20197;-71
2021/12/14 08:48:59;;;;;;;15.10;11.45;;;8.10;99.90;;;8.18;73.71;102104.53;4913049;29;20287;-74
2021/12/14 08:51:33;;;;;;;15.35;12.80;;;8.10;99.90;;;8.19;73.72;102100.81;4916656;29;20396;-71
2021/12/14 08:54:15;;;;;;;14.00;11.38;;;8.00;99.90;;;8.28;73.23;102106.09;4914650;29;20193;-72
2021/12/14 08:56:51;;;;;;;22.15;13.05;;;8.10;99.90;;;8.31;73.39;102096.03;4915374;29;20279;-72
2021/12/14 08:59:21;;;;;;;14.35;12.02;;;8.20;99.90;;;8.15;73.47;102097.56;4916162;29;20228;-72
2021/12/14 09:01:52;;;;;;;21.27;13.18;;;8.10;99.90;;;8.22;73.43;102092.41;4917360;29;20198;-73
2021/12/14 09:04:24;;;;;;;15.38;10.68;;;8.10;99.90;;;8.12;73.51;102083.56;4920313;29;20611;-72
2021/12/14 09:06:58;;;;;;;16.27;13.45;;;8.10;99.90;;;8.07;73.87;102064.31;4913109;29;20207;-72
2021/12/14 09:09:26;;;;;;;16.73;13.68;;;8.00;99.90;;;8.22;73.70;102058.19;4919999;29;20228;-74
2021/12/14 09:12:08;;;;;;;15.20;12.52;;;8.00;99.90;;;8.40;73.06;102065.41;4921385;29;20186;-72
2021/12/14 09:14:45;;;;;;;19.35;13.45;;;8.10;99.90;;;8.48;72.74;102065.44;4930562;29;20189;-73
2021/12/14 09:17:21;;;;;;;17.52;12.80;;;8.30;99.90;;;8.45;72.61;102073.88;4932193;29;20244;-72
2021/12/14 09:19:55;;;;;;;18.60;12.02;;;8.30;99.90;;;8.40;72.39;102077.06;4924667;29;20213;-72
2021/12/14 09:22:33;;;;;;;15.13;11.93;;;8.20;99.90;;;8.40;72.78;102079.75;4924546;29;20204;-70
2021/12/14 09:25:06;;;;;;;16.85;12.98;;;8.30;99.90;;;8.52;72.35;102074.94;4920786;29;20197;-72
2021/12/14 09:27:38;;;;;;;17.70;13.73;;;8.30;99.90;;;8.46;72.22;102072.88;4923140;29;20221;-72
2021/12/14 09:30:15;;;;;;;17.73;13.85;;;8.40;99.90;;;8.40;72.68;102078.91;4923076;29;20241;-71
2021/12/14 09:32:45;;;;;;;15.57;11.23;;;8.30;99.90;;;8.36;72.57;102075.69;4925592;29;20227;-72
2021/12/14 09:35:19;;;;;;;18.38;13.35;;;8.30;99.90;;;8.32;72.89;102073.47;4926213;29;20249;-72
2021/12/14 09:37:50;;;;;;;21.67;12.52;;;8.20;99.90;;;8.40;72.25;102070.81;4925242;29;20212;-71
2021/12/14 09:40:25;;;;;;;16.90;11.85;;;8.30;99.90;;;8.44;72.27;102074.88;4918552;29;20308;-73
2021/12/14 09:42:56;;;;;;;16.10;11.02;;;8.30;99.90;;;8.46;72.30;102065.63;4923234;29;20228;-72
2021/12/14 09:45:35;;;;;;;16.15;11.80;;;8.30;99.90;;;8.57;72.13;102062.63;4926651;29;20803;-72
2021/12/14 09:48:06;;;;;;;13.88;12.35;;;8.40;99.90;;;8.41;72.45;102065.25;4926169;29;20196;-71
2021/12/14 09:50:37;;;;;;;15.13;10.98;;;8.30;99.90;;;8.38;72.39;102057.47;4942624;29;20231;-71
2021/12/14 09:53:14;;;;;;;16.50;13.05;;;8.30;99.90;;;8.41;72.08;102057.16;4923994;29;20217;-71
2021/12/14 09:55:46;;;;;;;14.70;12.73;;;8.30;99.90;;;8.48;71.99;102062.75;4928421;29;20196;-72
2021/12/14 09:58:23;;;;;;;16.95;13.25;;;8.30;99.90;;;8.48;71.95;102068.16;4930261;29;20580;-72
2021/12/14 10:00:57;;;;;;;15.98;12.38;;;8.30;99.90;;;8.50;71.97;102061.59;4934158;29;20578;-71
2021/12/14 10:03:28;;;;;;;20.38;12.15;;;8.40;99.90;;;8.41;71.99;102050.91;4937170;29;20185;-72
2021/12/14 10:06:01;;;;;;;18.63;13.35;;;8.30;99.90;;;8.54;71.98;102045.94;4952229;29;20213;-71
2021/12/14 10:08:35;;;;;;;16.60;13.13;;;8.40;99.90;;;8.53;71.58;102044.22;4936787;29;20218;-73
2021/12/14 10:11:11;;;;;;;14.35;11.45;;;8.40;99.90;;;8.51;71.89;102046.25;4942442;29;20220;-71
2021/12/14 10:13:46;;;;;;;16.98;11.82;;;8.40;99.90;;;8.61;71.45;102042.44;4930379;29;20649;-71
2021/12/14 10:16:14;;;;;;;18.30;14.18;;;8.50;99.90;;;8.67;70.93;102035.53;4924520;29;20192;-73
2021/12/14 10:18:49;;;;;;;20.75;12.85;;;8.50;99.90;;;8.81;70.61;102039.47;4926862;29;20556;-72
2021/12/14 10:21:25;;;;;;;19.63;13.38;;;8.60;99.90;;;8.65;70.81;102033.00;4932105;29;20250;-72
2021/12/14 10:23:54;;;;;;;18.10;14.30;;;8.50;99.90;;;8.82;70.58;102033.91;4919938;29;20190;-73
2021/12/14 10:26:33;;;;;;;22.38;12.73;;;8.60;99.90;;;8.80;70.14;102027.84;4927075;29;20211;-71
2021/12/14 10:29:04;;;;;;;16.60;13.15;;;8.70;99.90;;;8.91;70.04;102024.81;4928667;29;20266;-71
2021/12/14 10:31:41;;;;;;;15.20;11.60;;;8.70;99.90;;;8.91;69.81;102019.41;4924434;29;20214;-72
2021/12/14 10:34:17;;;;;;;16.15;12.95;;;8.70;99.90;;;8.97;69.57;102021.47;4918726;29;20311;-72
2021/12/14 10:36:50;;;;;;;19.08;14.48;;;8.80;1.00;;;8.92;69.06;102026.50;4923326;29;20202;-72
2021/12/14 10:39:37;;;;;;;15.90;14.10;;;8.80;99.90;;;8.78;69.70;102031.69;4933449;29;20325;-73
2021/12/14 10:45:03;;;;;;;18.10;13.65;;;8.80;1.00;;;8.97;69.10;102037.66;4925836;29;20197;-73
2021/12/14 10:47:33;;;;;;;17.05;12.13;;;8.80;99.90;;;9.00;69.17;102036.50;4929457;29;20269;-73
2021/12/14 10:50:11;;;;;;;15.60;14.00;;;8.80;99.90;;;8.92;69.05;102029.22;4936953;29;20720;-71
2021/12/14 10:52:42;;;;;;;17.45;13.57;;;8.80;99.90;;;9.05;69.23;102024.19;4930588;29;20523;-72
2021/12/14 10:55:17;;;;;;;18.42;15.02;;;8.90;99.90;;;9.14;69.03;102023.22;4919166;29;20202;-72
2021/12/14 10:57:47;;;;;;;20.77;15.40;;;8.90;99.90;;;9.13;68.57;102015.28;4921119;29;20200;-71
2021/12/14 11:00:29;;;;;;;14.25;11.30;;;9.00;99.90;;;9.25;68.55;102018.50;4927558;29;20551;-73
2021/12/14 11:03:12;;;;;;;19.77;15.25;;;9.00;99.90;;;9.21;68.73;102012.59;4928050;29;20196;-72
2021/12/14 11:05:46;;;;;;;14.45;12.52;;;9.10;99.90;;;9.28;68.44;102018.16;4920172;29;20207;-72